Time;durP1;ratioP1;P1;durP2;ratioP2;P2;SDS_P1;SDS_P2;PMS_P1;PMS_P2;Temp;Humidity;BMP_temperature;BMP_pressure;BME280_temperature;BME280_humidity;BME280_pressure;Samples;Min_cycle;Max_cycle;Signal;HPM_P1;HPM_P2
2021/10/17 00:00:24;;;;;;;11.43;8.53;;;8.60;99.90;;;;;;5060094;28;20537;-74
2021/10/17 00:03:10;;;;;;;12.20;8.40;;;8.70;99.90;;;;;;5068204;28;20451;-74
2021/10/17 00:05:57;;;;;;;13.47;8.23;;;8.70;99.90;;;;;;5060557;28;20455;-73
2021/10/17 00:08:43;;;;;;;12.30;9.15;;;8.70;99.90;;;;;;5046445;28;20563;-74
2021/10/17 00:11:29;;;;;;;12.40;9.70;;;8.90;99.90;;;;;;5056120;28;20200;-73
2021/10/17 00:14:15;;;;;;;10.30;9.03;;;8.80;99.90;;;;;;5055204;28;20858;-73
2021/10/17 00:17:01;;;;;;;15.03;8.27;;;8.80;99.90;;;;;;5058290;28;20427;-73
2021/10/17 00:19:46;;;;;;;10.93;8.70;;;8.70;99.90;;;;;;5058367;28;20468;-74
2021/10/17 00:22:32;;;;;;;10.67;8.17;;;8.70;99.90;;;;;;5058938;28;20490;-73
2021/10/17 00:25:20;;;;;;;11.52;9.40;;;8.60;99.90;;;;;;5060465;28;20444;-73
2021/10/17 00:28:05;;;;;;;11.03;8.80;;;8.60;99.90;;;;;;5059137;28;20209;-74
2021/10/17 00:30:51;;;;;;;10.17;8.47;;;8.60;99.90;;;;;;5060067;28;20996;-73
2021/10/17 00:33:37;;;;;;;9.57;8.57;;;8.50;99.90;;;;;;5059740;28;20474;-73
2021/10/17 00:36:23;;;;;;;11.77;9.57;;;8.50;99.90;;;;;;5054047;28;20464;-73
2021/10/17 00:39:09;;;;;;;18.13;10.23;;;8.40;99.90;;;;;;5072203;28;20470;-73
2021/10/17 00:41:56;;;;;;;12.33;9.67;;;8.50;99.90;;;;;;5059091;28;20451;-73
2021/10/17 00:44:43;;;;;;;13.10;10.27;;;8.60;99.90;;;;;;5057138;28;20832;-73
2021/10/17 00:47:29;;;;;;;16.63;9.60;;;8.70;99.90;;;;;;5060575;28;20468;-73
2021/10/17 00:50:15;;;;;;;12.80;7.97;;;8.70;99.90;;;;;;5053061;28;20452;-74
2021/10/17 00:53:00;;;;;;;12.07;8.10;;;8.50;99.90;;;;;;5063261;28;20217;-74
2021/10/17 00:55:48;;;;;;;10.93;7.90;;;8.50;99.90;;;;;;5052022;28;20835;-74
2021/10/17 00:58:35;;;;;;;8.90;7.97;;;8.50;99.90;;;;;;5059741;28;20463;-74
2021/10/17 01:01:21;;;;;;;14.60;8.47;;;8.60;99.90;;;;;;5063684;28;20490;-74
2021/10/17 01:04:07;;;;;;;14.50;8.87;;;8.80;99.90;;;;;;5066144;28;20824;-74
2021/10/17 01:06:52;;;;;;;12.45;8.75;;;8.80;99.90;;;;;;5047455;28;20452;-74
2021/10/17 01:09:40;;;;;;;9.80;7.80;;;8.80;99.90;;;;;;5057475;28;20207;-74
2021/10/17 01:12:25;;;;;;;9.80;7.90;;;8.80;99.90;;;;;;5057634;28;20470;-74
2021/10/17 01:15:13;;;;;;;10.73;8.50;;;8.90;99.90;;;;;;5057625;28;20504;-74
2021/10/17 01:17:59;;;;;;;10.93;8.10;;;8.90;99.90;;;;;;5063976;28;20446;-74
2021/10/17 01:20:46;;;;;;;13.43;7.50;;;8.90;99.90;;;;;;5060283;28;21018;-74
2021/10/17 01:23:32;;;;;;;9.43;7.40;;;8.80;99.90;;;;;;5054138;28;20542;-74
2021/10/17 01:26:17;;;;;;;9.73;8.07;;;8.60;99.90;;;;;;5053509;28;20456;-74
2021/10/17 01:29:04;;;;;;;7.53;6.43;;;8.60;99.90;;;;;;5054498;28;20520;-74
2021/10/17 01:31:52;;;;;;;9.00;6.43;;;8.60;99.90;;;;;;5052899;28;20453;-74
2021/10/17 01:34:37;;;;;;;8.43;6.23;;;8.50;99.90;;;;;;5034083;28;20465;-73
2021/10/17 01:37:25;;;;;;;7.60;6.80;;;8.60;99.90;;;;;;5062636;28;20436;-74
2021/10/17 01:40:11;;;;;;;9.70;6.13;;;8.40;99.90;;;;;;5053929;28;20515;-74
2021/10/17 01:42:57;;;;;;;9.63;7.03;;;8.30;99.90;;;;;;5060561;28;20527;-74
2021/10/17 01:45:43;;;;;;;9.13;6.30;;;8.30;99.90;;;;;;5055626;28;20444;-74
2021/10/17 01:48:29;;;;;;;14.93;5.27;;;8.20;99.90;;;;;;5051354;28;20445;-74
2021/10/17 01:51:15;;;;;;;9.23;6.20;;;8.20;99.90;;;;;;5056502;28;20420;-73
2021/10/17 01:54:03;;;;;;;8.10;5.60;;;8.10;99.90;;;;;;5054159;28;20469;-73
2021/10/17 01:56:49;;;;;;;7.70;5.10;;;8.00;99.90;;;;;;5054903;28;20456;-73
2021/10/17 01:59:34;;;;;;;5.25;4.55;;;7.90;99.90;;;;;;5037770;28;20733;-74
2021/10/17 02:02:20;;;;;;;10.73;4.73;;;7.80;99.90;;;;;;5062558;28;20717;-73
2021/10/17 02:05:06;;;;;;;7.28;5.68;;;7.80;99.90;;;;;;5061761;28;20533;-73
2021/10/17 02:07:52;;;;;;;5.30;4.25;;;7.80;99.90;;;;;;5058579;28;20564;-74
2021/10/17 02:10:39;;;;;;;5.30;4.10;;;7.80;99.90;;;;;;5058569;28;20202;-73
2021/10/17 02:13:25;;;;;;;5.40;4.35;;;7.80;99.90;;;;;;5043700;28;20548;-74
2021/10/17 02:16:11;;;;;;;8.35;4.18;;;7.70;99.90;;;;;;5059412;28;20204;-73
2021/10/17 02:18:57;;;;;;;5.75;4.63;;;7.70;99.90;;;;;;5054413;28;20592;-74
2021/10/17 02:21:42;;;;;;;12.40;4.43;;;7.70;99.90;;;;;;5053759;28;20279;-73
2021/10/17 02:24:28;;;;;;;6.27;4.10;;;7.60;99.90;;;;;;5051069;28;21146;-73
2021/10/17 02:27:14;;;;;;;7.63;3.83;;;7.70;99.90;;;;;;5058826;28;20678;-74
2021/10/17 02:30:00;;;;;;;6.40;5.30;;;7.80;99.90;;;;;;5054874;28;20208;-73
2021/10/17 02:32:45;;;;;;;5.97;4.38;;;7.80;99.90;;;;;;5056716;28;20201;-73
2021/10/17 02:35:31;;;;;;;6.88;5.15;;;7.90;99.90;;;;;;5060759;28;20343;-73
2021/10/17 02:38:16;;;;;;;6.15;4.90;;;8.00;99.90;;;;;;5061474;28;20206;-73
2021/10/17 02:41:02;;;;;;;5.75;4.60;;;8.10;99.90;;;;;;5059868;28;20714;-74
2021/10/17 02:43:49;;;;;;;7.57;5.28;;;8.10;99.90;;;;;;5063218;28;20347;-73
2021/10/17 02:46:35;;;;;;;5.30;4.77;;;8.10;99.90;;;;;;5056316;28;20349;-73
2021/10/17 02:49:20;;;;;;;9.30;6.00;;;8.20;99.90;;;;;;5053309;28;20869;-73
2021/10/17 02:52:06;;;;;;;7.27;5.80;;;8.20;99.90;;;;;;5061739;28;20416;-74
2021/10/17 02:54:52;;;;;;;13.13;5.50;;;8.10;99.90;;;;;;5061423;28;20474;-73
2021/10/17 02:57:37;;;;;;;7.20;5.87;;;8.10;99.90;;;;;;5061943;28;20201;-74
2021/10/17 03:00:24;;;;;;;6.47;5.53;;;8.10;99.90;;;;;;5068548;28;20463;-73
2021/10/17 03:03:10;;;;;;;7.53;5.77;;;8.10;99.90;;;;;;5061978;28;20488;-73
2021/10/17 03:05:56;;;;;;;6.53;5.50;;;8.10;99.90;;;;;;5059968;28;20450;-74
2021/10/17 03:08:41;;;;;;;7.10;6.40;;;8.20;99.90;;;;;;5060358;28;20987;-74
2021/10/17 03:11:27;;;;;;;12.20;6.60;;;8.20;99.90;;;;;;5045495;28;20275;-73
2021/10/17 03:14:12;;;;;;;19.73;7.05;;;8.00;99.90;;;;;;5060235;28;20538;-74
2021/10/17 03:16:59;;;;;;;6.55;5.90;;;8.00;99.90;;;;;;5058965;28;20212;-74
2021/10/17 03:19:45;;;;;;;9.53;5.50;;;8.10;99.90;;;;;;5055960;28;20201;-74
2021/10/17 03:22:30;;;;;;;9.30;6.35;;;8.00;99.90;;;;;;5057637;28;20439;-75
2021/10/17 03:25:16;;;;;;;6.15;5.35;;;8.10;99.90;;;;;;5055382;28;20842;-74
2021/10/17 03:28:02;;;;;;;9.30;5.73;;;8.20;99.90;;;;;;5060921;28;20256;-74
2021/10/17 03:30:50;;;;;;;7.17;5.17;;;8.20;99.90;;;;;;5061590;28;20425;-74
2021/10/17 03:33:37;;;;;;;7.37;5.70;;;8.20;99.90;;;;;;5059106;28;20483;-74
2021/10/17 03:36:23;;;;;;;6.30;5.23;;;8.20;99.90;;;;;;5066495;28;20570;-74
2021/10/17 03:39:09;;;;;;;6.20;5.30;;;8.40;99.90;;;;;;5066156;28;20592;-74
2021/10/17 03:41:54;;;;;;;7.53;5.90;;;8.40;99.90;;;;;;5065142;28;20476;-74
2021/10/17 03:44:39;;;;;;;8.40;6.77;;;8.40;99.90;;;;;;5061340;28;20481;-74
2021/10/17 03:47:25;;;;;;;8.97;5.30;;;8.40;99.90;;;;;;5060833;28;20457;-74
2021/10/17 03:50:12;;;;;;;9.30;5.97;;;8.40;99.90;;;;;;5066983;28;20434;-74
2021/10/17 03:52:58;;;;;;;7.80;6.20;;;8.30;99.90;;;;;;5062303;28;20839;-74
2021/10/17 03:55:44;;;;;;;6.93;5.70;;;8.30;99.90;;;;;;5061492;28;20536;-74
2021/10/17 03:58:30;;;;;;;6.20;5.60;;;8.40;99.90;;;;;;5048721;28;20507;-74
2021/10/17 04:01:15;;;;;;;9.10;6.07;;;8.30;99.90;;;;;;5062581;28;20228;-74
2021/10/17 04:04:01;;;;;;;16.48;5.47;;;8.10;99.90;;;;;;5039322;28;20467;-74
2021/10/17 04:06:48;;;;;;;8.13;5.25;;;8.10;99.90;;;;;;5062300;28;20205;-74
2021/10/17 04:09:34;;;;;;;7.70;5.78;;;8.00;99.90;;;;;;5049820;28;20214;-74
2021/10/17 04:12:19;;;;;;;6.97;5.68;;;7.90;99.90;;;;;;5064216;28;20197;-74
2021/10/17 04:15:06;;;;;;;6.83;5.80;;;8.10;99.90;;;;;;5061331;28;20702;-74
2021/10/17 04:17:52;;;;;;;6.00;5.40;;;8.10;99.90;;;;;;5065910;28;20450;-74
2021/10/17 04:20:37;;;;;;;8.47;6.07;;;8.00;99.90;;;;;;5059466;28;20522;-74
2021/10/17 04:23:24;;;;;;;6.00;5.13;;;8.10;99.90;;;;;;5063218;28;20443;-74
2021/10/17 04:26:09;;;;;;;6.53;5.83;;;8.00;99.90;;;;;;5060314;28;20300;-74
2021/10/17 04:28:55;;;;;;;7.30;5.63;;;8.00;99.90;;;;;;5064839;28;20509;-73
2021/10/17 04:31:41;;;;;;;8.03;5.30;;;8.00;99.90;;;;;;5060388;28;20489;-74
2021/10/17 04:34:26;;;;;;;5.83;5.03;;;8.00;99.90;;;;;;5053817;28;20472;-75
2021/10/17 04:37:12;;;;;;;10.10;5.00;;;7.90;99.90;;;;;;5060595;28;20430;-74
2021/10/17 04:39:59;;;;;;;6.53;5.33;;;8.00;99.90;;;;;;5051504;28;20447;-74
2021/10/17 04:42:44;;;;;;;9.53;5.20;;;8.00;99.90;;;;;;5042917;28;20422;-75
2021/10/17 04:45:30;;;;;;;10.43;5.03;;;8.10;99.90;;;;;;5055902;28;20444;-74
2021/10/17 04:48:16;;;;;;;6.27;4.97;;;8.20;99.90;;;;;;5054843;28;20951;-75
2021/10/17 04:51:02;;;;;;;7.10;5.15;;;8.20;99.90;;;;;;5053125;28;20420;-74
2021/10/17 04:53:47;;;;;;;8.37;6.30;;;8.30;99.90;;;;;;5063269;28;20343;-74
2021/10/17 04:56:34;;;;;;;5.57;4.80;;;8.30;99.90;;;;;;5041063;28;20394;-75
2021/10/17 04:59:22;;;;;;;5.77;5.13;;;8.30;99.90;;;;;;5057611;28;20450;-75
2021/10/17 05:02:08;;;;;;;8.03;5.60;;;8.30;99.90;;;;;;5060131;28;20516;-74
2021/10/17 05:04:54;;;;;;;8.10;5.10;;;8.20;99.90;;;;;;5051562;28;20985;-74
2021/10/17 05:07:41;;;;;;;5.13;4.63;;;8.20;99.90;;;;;;5057356;28;20427;-74
2021/10/17 05:10:27;;;;;;;5.53;5.00;;;8.10;99.90;;;;;;5065010;28;20447;-74
2021/10/17 05:13:14;;;;;;;5.90;5.17;;;8.10;99.90;;;;;;5058780;28;20414;-74
2021/10/17 05:16:00;;;;;;;7.77;4.60;;;8.20;99.90;;;;;;5058056;28;20450;-74
2021/10/17 05:18:45;;;;;;;8.53;4.97;;;8.20;99.90;;;;;;5059207;28;20447;-75
2021/10/17 05:21:30;;;;;;;6.83;5.10;;;8.30;99.90;;;;;;5048603;28;20547;-74
2021/10/17 05:24:16;;;;;;;6.00;5.40;;;8.20;99.90;;;;;;5052865;28;20479;-74
2021/10/17 05:27:02;;;;;;;6.70;5.50;;;8.10;99.90;;;;;;5063232;28;20994;-74
2021/10/17 05:29:49;;;;;;;6.60;5.67;;;8.00;99.90;;;;;;5058725;28;20196;-74
2021/10/17 05:32:34;;;;;;;7.03;5.47;;;7.90;99.90;;;;;;5048888;28;20438;-75
2021/10/17 05:35:20;;;;;;;9.30;6.57;;;7.80;99.90;;;;;;5056704;28;20476;-74
2021/10/17 05:38:06;;;;;;;9.48;6.00;;;7.90;99.90;;;;;;5066543;28;20485;-74
2021/10/17 05:40:51;;;;;;;6.72;5.75;;;8.00;99.90;;;;;;5034492;28;20220;-74
2021/10/17 05:43:37;;;;;;;6.50;5.90;;;8.10;99.90;;;;;;5058891;28;20364;-74
2021/10/17 05:46:24;;;;;;;7.17;5.80;;;8.20;99.90;;;;;;5053748;28;20451;-74
2021/10/17 05:49:10;;;;;;;9.10;6.53;;;8.20;99.90;;;;;;5049251;28;20462;-74
2021/10/17 05:51:56;;;;;;;7.70;6.37;;;8.30;99.90;;;;;;5062523;28;20450;-74
2021/10/17 05:54:42;;;;;;;9.70;6.05;;;8.40;99.90;;;;;;5051977;28;20812;-75
2021/10/17 05:57:27;;;;;;;9.90;6.60;;;8.40;99.90;;;;;;5056112;28;20620;-74
2021/10/17 06:00:14;;;;;;;7.10;5.93;;;8.40;99.90;;;;;;5046442;28;21063;-74
2021/10/17 06:03:01;;;;;;;8.50;6.60;;;8.40;99.90;;;;;;5054996;28;20462;-74
2021/10/17 06:05:49;;;;;;;7.93;6.87;;;8.40;99.90;;;;;;5047481;28;20574;-74
2021/10/17 06:08:36;;;;;;;9.73;6.78;;;8.40;99.90;;;;;;5050278;28;20451;-74
2021/10/17 06:11:21;;;;;;;7.27;6.20;;;8.40;99.90;;;;;;5065906;28;20203;-74
2021/10/17 06:14:07;;;;;;;9.00;6.13;;;8.40;99.90;;;;;;5057040;28;20463;-74
2021/10/17 06:16:53;;;;;;;8.90;7.10;;;8.40;99.90;;;;;;5062039;28;20570;-74
2021/10/17 06:19:40;;;;;;;9.70;6.83;;;8.50;99.90;;;;;;5059515;28;20882;-74
2021/10/17 06:22:26;;;;;;;10.93;6.70;;;8.50;99.90;;;;;;5060673;28;20999;-74
2021/10/17 06:25:11;;;;;;;16.50;8.90;;;8.50;99.90;;;;;;5054720;28;20436;-74
2021/10/17 06:27:57;;;;;;;9.70;7.47;;;8.60;99.90;;;;;;5058852;28;20541;-74
2021/10/17 06:30:42;;;;;;;8.20;7.23;;;8.60;99.90;;;;;;5058313;28;20544;-74
2021/10/17 06:33:28;;;;;;;13.23;7.27;;;8.60;99.90;;;;;;5053054;28;20475;-74
2021/10/17 06:36:15;;;;;;;10.83;8.20;;;8.60;99.90;;;;;;5062033;28;20708;-74
2021/10/17 06:39:00;;;;;;;9.90;7.93;;;8.70;99.90;;;;;;5056046;28;20453;-74
2021/10/17 06:41:46;;;;;;;11.85;7.40;;;8.80;99.90;;;;;;5051086;28;20523;-74
2021/10/17 06:44:32;;;;;;;8.60;7.10;;;8.90;99.90;;;;;;5060342;28;20226;-74
2021/10/17 06:47:17;;;;;;;12.23;8.43;;;8.80;99.90;;;;;;5069127;28;20460;-74
2021/10/17 06:50:03;;;;;;;19.13;8.60;;;8.90;99.90;;;;;;5062470;28;20482;-74
2021/10/17 06:52:51;;;;;;;9.23;7.90;;;8.90;99.90;;;;;;5060306;28;20452;-74
2021/10/17 06:55:37;;;;;;;11.80;8.25;;;8.80;99.90;;;;;;5037916;28;20500;-74
2021/10/17 06:58:22;;;;;;;9.50;7.35;;;8.80;99.90;;;;;;5060563;28;20268;-75
2021/10/17 07:01:08;;;;;;;10.33;8.77;;;8.90;99.90;;;;;;5045878;28;20361;-74
2021/10/17 07:03:53;;;;;;;9.57;8.17;;;8.90;99.90;;;;;;5059966;28;20534;-74
2021/10/17 07:06:39;;;;;;;9.73;7.95;;;8.80;99.90;;;;;;5061706;28;20440;-74
2021/10/17 07:09:26;;;;;;;10.40;7.63;;;8.70;99.90;;;;;;5065400;28;20760;-74
2021/10/17 07:12:12;;;;;;;10.13;8.82;;;8.70;99.90;;;;;;5055540;28;20202;-74
2021/10/17 07:14:58;;;;;;;8.77;7.80;;;8.50;99.90;;;;;;5055649;28;20564;-74
2021/10/17 07:17:43;;;;;;;12.43;8.87;;;8.60;99.90;;;;;;5058555;28;20439;-74
2021/10/17 07:20:29;;;;;;;12.10;8.30;;;8.70;99.90;;;;;;5047955;28;20451;-74
2021/10/17 07:23:15;;;;;;;10.80;8.90;;;8.80;99.90;;;;;;5062779;28;20435;-74
2021/10/17 07:26:02;;;;;;;10.60;7.93;;;9.00;99.90;;;;;;5053950;28;21004;-74
2021/10/17 07:28:48;;;;;;;12.80;7.77;;;9.10;99.90;;;;;;5056866;28;20426;-74
2021/10/17 07:31:33;;;;;;;11.37;8.50;;;9.20;99.90;;;;;;5048419;28;20453;-74
2021/10/17 07:34:19;;;;;;;9.10;8.20;;;9.20;99.90;;;;;;5052042;28;20523;-74
2021/10/17 07:37:05;;;;;;;12.00;8.43;;;9.20;99.90;;;;;;5055064;28;20454;-74
2021/10/17 07:39:51;;;;;;;12.70;8.77;;;9.20;99.90;;;;;;5057258;28;20454;-74
2021/10/17 07:42:38;;;;;;;10.70;7.97;;;9.30;99.90;;;;;;5052238;28;20591;-74
2021/10/17 07:45:24;;;;;;;12.60;8.67;;;9.40;99.90;;;;;;5055285;28;20954;-74
2021/10/17 07:48:10;;;;;;;14.13;9.37;;;9.40;99.90;;;;;;5050712;28;20986;-74
2021/10/17 07:50:56;;;;;;;12.27;8.77;;;9.50;99.90;;;;;;5056306;28;20451;-74
2021/10/17 07:53:42;;;;;;;11.87;9.37;;;9.50;99.90;;;;;;5059653;28;20452;-74
2021/10/17 07:56:28;;;;;;;15.50;9.57;;;9.60;99.90;;;;;;5066498;28;20531;-74
2021/10/17 07:59:15;;;;;;;16.27;8.90;;;9.60;99.90;;;;;;5055623;28;20514;-74
2021/10/17 08:02:01;;;;;;;16.00;9.30;;;9.70;99.90;;;;;;5061755;28;20567;-74
2021/10/17 08:04:48;;;;;;;18.47;11.40;;;9.70;99.90;;;;;;5058561;28;20478;-74
2021/10/17 08:07:34;;;;;;;15.07;11.57;;;9.80;99.90;;;;;;5049997;28;20782;-74
2021/10/17 08:10:20;;;;;;;13.80;10.40;;;9.80;99.90;;;;;;5055818;28;20840;-74
2021/10/17 08:13:07;;;;;;;16.87;11.73;;;9.80;99.90;;;;;;5060507;28;20473;-74
2021/10/17 08:15:54;;;;;;;12.67;10.60;;;9.90;99.90;;;;;;5057344;28;20914;-74
2021/10/17 08:18:40;;;;;;;16.23;11.80;;;9.90;99.90;;;;;;5060048;28;20941;-74
2021/10/17 08:21:26;;;;;;;14.00;10.70;;;10.00;99.90;;;;;;5035771;28;20547;-74
2021/10/17 08:24:11;;;;;;;17.73;11.90;;;10.10;99.90;;;;;;5061366;28;21110;-74
2021/10/17 08:26:57;;;;;;;19.90;10.93;;;10.10;99.90;;;;;;5053849;28;20598;-74
2021/10/17 08:29:43;;;;;;;20.97;11.70;;;10.10;99.90;;;;;;5054217;28;20441;-74
2021/10/17 08:32:30;;;;;;;14.70;11.80;;;10.20;99.90;;;;;;5055397;28;20449;-74
2021/10/17 08:35:16;;;;;;;18.20;12.87;;;10.30;99.90;;;;;;5064254;28;20474;-74
2021/10/17 08:38:01;;;;;;;19.20;13.10;;;10.30;99.90;;;;;;5053651;28;20462;-74
2021/10/17 08:40:49;;;;;;;24.13;12.80;;;10.40;99.90;;;;;;5060574;28;20444;-74
2021/10/17 08:43:35;;;;;;;21.60;13.53;;;10.40;99.90;;;;;;5058007;28;20735;-74
2021/10/17 08:46:21;;;;;;;19.03;13.47;;;10.40;99.90;;;;;;5049620;28;20815;-74
2021/10/17 08:49:09;;;;;;;20.60;13.63;;;10.50;99.90;;;;;;5062832;28;20911;-74
2021/10/17 08:51:55;;;;;;;22.20;14.13;;;10.50;99.90;;;;;;5051898;28;20811;-74
2021/10/17 08:54:40;;;;;;;21.20;15.37;;;10.60;99.90;;;;;;5060658;28;20413;-74
2021/10/17 08:57:26;;;;;;;23.13;16.47;;;10.60;99.90;;;;;;5048426;28;20457;-74
2021/10/17 09:00:29;;;;;;;25.70;16.03;;;10.60;99.90;;;;;;5055798;28;20560;-74
2021/10/17 09:03:30;;;;;;;24.17;16.23;;;10.70;99.90;;;;;;5056896;28;20452;-74
2021/10/17 09:06:19;;;;;;;27.67;17.60;;;10.60;99.90;;;;;;5063919;28;20416;-73
2021/10/17 09:09:10;;;;;;;25.80;17.13;;;10.70;99.90;;;;;;5054065;28;20428;-73
2021/10/17 09:11:58;;;;;;;28.03;17.50;;;10.70;99.90;;;;;;5057587;28;20889;-74
2021/10/17 09:14:43;;;;;;;33.13;18.97;;;10.80;99.90;;;;;;5052738;28;20567;-74
2021/10/17 09:17:29;;;;;;;31.70;18.97;;;10.90;99.90;;;;;;5050941;28;20914;-71
2021/10/17 09:20:15;;;;;;;33.67;18.23;;;10.80;99.90;;;;;;5045357;28;20443;-71
2021/10/17 09:23:03;;;;;;;45.23;21.97;;;10.80;99.90;;;;;;5036679;28;20474;-74
2021/10/17 09:25:50;;;;;;;32.40;20.70;;;10.70;99.90;;;;;;5051101;28;20967;-74
2021/10/17 09:28:37;;;;;;;31.47;20.30;;;10.70;99.90;;;;;;5052144;28;20432;-73
2021/10/17 09:31:22;;;;;;;34.50;20.70;;;10.90;99.90;;;;;;5033408;28;20446;-74
2021/10/17 09:34:08;;;;;;;48.43;22.70;;;10.90;99.90;;;;;;5031880;28;20471;-74
2021/10/17 09:37:07;;;;;;;38.50;24.33;;;11.00;99.90;;;;;;5060254;28;20503;-73
2021/10/17 09:40:04;;;;;;;41.73;25.73;;;11.20;99.90;;;;;;5057275;28;20649;-74
2021/10/17 09:43:05;;;;;;;40.67;23.37;;;11.10;99.90;;;;;;5039923;28;20459;-73
2021/10/17 09:45:51;;;;;;;35.90;21.70;;;11.10;99.90;;;;;;5053064;28;20448;-73
2021/10/17 09:48:37;;;;;;;39.90;24.47;;;11.30;99.90;;;;;;5058274;28;21096;-73
2021/10/17 09:51:25;;;;;;;37.67;23.23;;;11.50;99.90;;;;;;5052580;28;20462;-74
2021/10/17 09:54:11;;;;;;;35.80;24.57;;;11.60;99.90;;;;;;5061647;28;20548;-74
2021/10/17 09:57:05;;;;;;;41.87;25.93;;;11.80;99.90;;;;;;5050481;28;20430;-74
2021/10/17 09:59:51;;;;;;;42.77;24.77;;;12.00;99.90;;;;;;5055068;28;21033;-76
2021/10/17 10:02:37;;;;;;;36.93;22.80;;;12.10;99.90;;;;;;5042558;28;20830;-76
2021/10/17 10:05:27;;;;;;;39.53;23.33;;;12.00;99.90;;;;;;5064275;28;20451;-75
2021/10/17 10:08:21;;;;;;;40.80;24.47;;;12.10;99.90;;;;;;5047808;28;21079;-75
2021/10/17 10:11:07;;;;;;;44.57;23.57;;;12.00;99.90;;;;;;5059162;28;20454;-76
2021/10/17 10:13:57;;;;;;;42.80;22.97;;;12.20;99.90;;;;;;5062894;28;20441;-75
2021/10/17 10:16:44;;;;;;;38.80;19.63;;;12.40;99.90;;;;;;5067480;28;20957;-76
2021/10/17 10:19:32;;;;;;;40.43;23.20;;;12.40;99.90;;;;;;5051168;28;20409;-75
2021/10/17 10:22:19;;;;;;;42.43;23.67;;;12.30;99.90;;;;;;5051071;28;20441;-75
2021/10/17 10:25:05;;;;;;;38.67;22.43;;;12.20;99.90;;;;;;5050742;28;20533;-76
2021/10/17 10:27:51;;;;;;;44.80;23.47;;;12.10;99.90;;;;;;5051177;28;20942;-75
2021/10/17 10:30:39;;;;;;;41.23;23.40;;;12.20;99.90;;;;;;5051360;28;20918;-73
2021/10/17 10:33:29;;;;;;;41.83;22.90;;;12.20;99.90;;;;;;5057248;28;20448;-73
2021/10/17 10:36:16;;;;;;;35.20;20.73;;;12.20;99.90;;;;;;5048087;28;20425;-73
2021/10/17 10:39:07;;;;;;;38.40;22.60;;;12.30;99.90;;;;;;5047172;28;20486;-73
2021/10/17 10:42:01;;;;;;;43.23;22.73;;;12.40;99.90;;;;;;5031422;28;20822;-73
2021/10/17 10:44:49;;;;;;;48.27;23.20;;;12.50;99.90;;;;;;5054176;28;20459;-73
2021/10/17 10:47:36;;;;;;;41.83;24.70;;;12.60;99.90;;;;;;5051198;28;20906;-73
2021/10/17 10:50:35;;;;;;;48.60;22.93;;;12.50;99.90;;;;;;5052158;28;20588;-73
2021/10/17 10:53:47;;;;;;;44.80;25.30;;;12.50;99.90;;;;;;5050214;28;20974;-73
2021/10/17 10:56:48;;;;;;;41.73;24.60;;;12.40;99.90;;;;;;5067593;28;20478;-73
2021/10/17 10:59:59;;;;;;;51.83;27.30;;;12.20;99.90;;;;;;5057646;28;20492;-73
2021/10/17 11:03:14;;;;;;;46.73;27.10;;;11.90;99.90;;;;;;5040959;28;20451;-73
2021/10/17 11:06:17;;;;;;;49.00;28.30;;;11.70;99.90;;;;;;5039068;28;20761;-73
2021/10/17 11:09:22;;;;;;;45.87;25.50;;;11.70;99.90;;;;;;5054452;28;20418;-73
2021/10/17 11:12:09;;;;;;;47.67;26.90;;;11.60;99.90;;;;;;5060319;28;20454;-73
2021/10/17 11:15:00;;;;;;;40.20;27.10;;;11.70;99.90;;;;;;5061856;28;20457;-73
2021/10/17 11:17:50;;;;;;;45.10;27.80;;;11.80;99.90;;;;;;5054120;28;20448;-73
2021/10/17 11:20:37;;;;;;;48.80;27.53;;;11.80;99.90;;;;;;5045458;28;20397;-73
2021/10/17 11:23:25;;;;;;;43.30;25.80;;;11.90;99.90;;;;;;5053851;28;20974;-73
2021/10/17 11:26:12;;;;;;;42.57;25.73;;;12.20;99.90;;;;;;5053582;28;20402;-73
2021/10/17 11:28:59;;;;;;;43.67;27.50;;;12.60;99.90;;;;;;5053634;28;20541;-73
2021/10/17 11:31:45;;;;;;;41.17;27.33;;;12.50;99.90;;;;;;5041064;28;20478;-73
2021/10/17 11:34:30;;;;;;;44.43;27.10;;;12.70;99.90;;;;;;5033621;28;20459;-73
2021/10/17 11:37:21;;;;;;;34.70;24.10;;;12.70;99.90;;;;;;5048400;28;20454;-74
2021/10/17 11:40:11;;;;;;;41.93;26.53;;;12.60;99.90;;;;;;5056728;28;20414;-73
2021/10/17 11:42:59;;;;;;;36.60;25.97;;;12.60;99.90;;;;;;5049311;28;20446;-73
2021/10/17 11:45:47;;;;;;;42.20;25.93;;;12.60;99.90;;;;;;5033941;28;20433;-73
2021/10/17 11:48:34;;;;;;;39.83;25.30;;;12.70;99.90;;;;;;5033437;28;20391;-73
2021/10/17 11:51:23;;;;;;;36.97;27.10;;;12.80;99.90;;;;;;5033762;28;20420;-73
2021/10/17 11:54:09;;;;;;;36.50;25.50;;;12.80;99.90;;;;;;5033277;28;20541;-73
2021/10/17 11:56:58;;;;;;;46.20;27.50;;;12.70;99.90;;;;;;5052411;28;20505;-73
2021/10/17 11:59:57;;;;;;;50.13;28.47;;;12.40;99.90;;;;;;5047589;28;20458;-75
2021/10/17 12:02:43;;;;;;;40.07;28.27;;;12.30;99.90;;;;;;5057399;28;20443;-74
2021/10/17 12:05:29;;;;;;;42.60;28.00;;;12.10;99.90;;;;;;5048772;28;20512;-74
2021/10/17 12:08:19;;;;;;;44.73;28.70;;;12.00;99.90;;;;;;5059541;28;20422;-75
2021/10/17 12:11:07;;;;;;;42.90;27.27;;;12.00;99.90;;;;;;5054329;28;20504;-75
2021/10/17 12:13:55;;;;;;;52.47;29.20;;;11.80;99.90;;;;;;5049115;28;20898;-77
2021/10/17 12:16:42;;;;;;;44.13;28.43;;;11.80;99.90;;;;;;5048283;28;20449;-76
2021/10/17 12:19:29;;;;;;;38.40;28.23;;;11.80;99.90;;;;;;5057546;28;20405;-76
2021/10/17 12:22:15;;;;;;;42.97;26.00;;;11.80;99.90;;;;;;5072973;28;20426;-76
2021/10/17 12:25:01;;;;;;;41.57;27.70;;;11.90;99.90;;;;;;5066871;28;20417;-76
2021/10/17 12:27:49;;;;;;;43.40;27.40;;;11.90;99.90;;;;;;5055051;28;20423;-76
2021/10/17 12:30:38;;;;;;;44.37;25.77;;;12.00;99.90;;;;;;5032299;28;20932;-76
2021/10/17 12:33:29;;;;;;;48.00;28.13;;;12.10;99.90;;;;;;5031825;28;20450;-76
2021/10/17 12:36:23;;;;;;;42.87;27.00;;;12.20;99.90;;;;;;5039501;28;20751;-76
2021/10/17 12:39:10;;;;;;;44.40;28.10;;;12.20;99.90;;;;;;5060618;28;20406;-76
2021/10/17 12:41:59;;;;;;;43.50;26.37;;;12.20;99.90;;;;;;5052531;28;20900;-76
2021/10/17 12:44:45;;;;;;;55.47;28.30;;;12.10;99.90;;;;;;5052526;28;20471;-77
2021/10/17 12:47:40;;;;;;;41.77;26.97;;;12.10;99.90;;;;;;5052463;28;20499;-76
2021/10/17 12:50:27;;;;;;;42.37;26.80;;;12.10;99.90;;;;;;5052332;28;20419;-76
2021/10/17 12:53:13;;;;;;;40.43;26.70;;;11.90;99.90;;;;;;5052119;28;20443;-76
2021/10/17 12:55:59;;;;;;;40.23;26.50;;;11.90;99.90;;;;;;5052460;28;20420;-76
2021/10/17 12:58:45;;;;;;;45.57;28.27;;;11.80;99.90;;;;;;5051832;28;20402;-77
2021/10/17 13:01:31;;;;;;;46.10;26.17;;;11.90;99.90;;;;;;5052279;28;20425;-76
2021/10/17 13:04:19;;;;;;;45.60;28.00;;;11.90;99.90;;;;;;5052295;28;20517;-76
2021/10/17 13:07:06;;;;;;;36.67;25.20;;;11.90;99.90;;;;;;5060202;28;20405;-76
2021/10/17 13:09:53;;;;;;;43.20;26.83;;;11.90;99.90;;;;;;5067233;28;20425;-76
2021/10/17 13:12:44;;;;;;;37.80;25.53;;;11.90;99.90;;;;;;5072072;28;20439;-76
2021/10/17 13:15:32;;;;;;;44.90;24.73;;;11.90;99.90;;;;;;5072114;28;20947;-76
2021/10/17 13:18:17;;;;;;;39.77;25.90;;;12.00;99.90;;;;;;5070835;28;20441;-76
2021/10/17 13:21:04;;;;;;;38.17;25.57;;;11.90;99.90;;;;;;5072188;28;20429;-76
2021/10/17 13:23:50;;;;;;;39.90;23.50;;;12.00;99.90;;;;;;5071268;28;20501;-75
2021/10/17 13:26:37;;;;;;;39.40;22.70;;;11.90;99.90;;;;;;5072012;28;20426;-76
2021/10/17 13:29:23;;;;;;;36.70;23.50;;;11.80;99.90;;;;;;5071345;28;20667;-76
2021/10/17 13:32:11;;;;;;;40.83;24.77;;;11.90;99.90;;;;;;5072062;28;21045;-77
2021/10/17 13:35:00;;;;;;;39.00;23.07;;;11.90;99.90;;;;;;5068751;28;20462;-76
2021/10/17 13:37:48;;;;;;;38.27;22.80;;;12.00;99.90;;;;;;5062175;28;20476;-76
2021/10/17 13:40:34;;;;;;;41.77;23.70;;;12.10;99.90;;;;;;5031787;28;20786;-76
2021/10/17 13:43:20;;;;;;;45.97;25.40;;;12.10;99.90;;;;;;5032160;28;20573;-76
2021/10/17 13:46:05;;;;;;;45.20;25.97;;;12.10;99.90;;;;;;5031709;28;20427;-77
2021/10/17 13:48:51;;;;;;;42.50;26.00;;;12.10;99.90;;;;;;5031464;28;20455;-77
2021/10/17 13:51:36;;;;;;;41.27;24.33;;;12.20;99.90;;;;;;5031959;28;20471;-77
2021/10/17 13:54:23;;;;;;;50.87;27.27;;;12.20;99.90;;;;;;5050811;28;20491;-77
2021/10/17 13:57:10;;;;;;;45.03;27.43;;;12.20;99.90;;;;;;5051692;28;20775;-76
2021/10/17 13:59:56;;;;;;;42.77;24.07;;;12.20;99.90;;;;;;5051758;28;20847;-76
2021/10/17 14:02:42;;;;;;;40.50;24.50;;;12.20;99.90;;;;;;5052224;28;20958;-77
2021/10/17 14:05:29;;;;;;;48.93;28.10;;;12.10;99.90;;;;;;5051629;28;20407;-76
2021/10/17 14:08:15;;;;;;;49.20;28.17;;;12.10;99.90;;;;;;5062607;28;20796;-76
2021/10/17 14:11:03;;;;;;;43.47;25.40;;;12.10;99.90;;;;;;5071354;28;20493;-77
2021/10/17 14:13:48;;;;;;;43.23;26.00;;;12.10;99.90;;;;;;5071036;28;20443;-77
2021/10/17 14:16:34;;;;;;;52.37;27.70;;;12.20;99.90;;;;;;5071655;28;20437;-77
2021/10/17 14:19:20;;;;;;;55.60;27.73;;;12.20;99.90;;;;;;5071017;28;20439;-77
2021/10/17 14:22:08;;;;;;;44.17;26.40;;;12.10;99.90;;;;;;5071716;28;20427;-77